CheckWX is a tool to help pilots better visualize weather data.  It is not intended as a substitute for an official pre-flight weather briefing.

20:37:07 UTC

KMVY METAR
Martha's Vineyard Airport
Vineyard Haven, Massachusetts, USA
Current

44 mins ago

KMVY 181953Z 32006KT 9SM BKN006 OVC045 02/01 A2979 RMK AO2 UPE1858B32E52RAB1858E13 SLP089 P0000 T00170011
Observed
Feb-18 @ 19:53 UTC
Wind
  • 320° at 6 KTS
Visibility
9 SM
Flight Rules
IFR
Cloud Levels
  • Broken at 600' AGL
  • Overcast at 4,500' AGL
Temperature
C / 36°F
Dewpoint
C / 34°F
Humidity
93%
Altimeter
29.79" Hg
Pressure
1008.9 hPa
Current Rain
0.01"
Previous

2 hours ago

KMVY 181853Z 31006KT 5SM UP BR OVC006 02/01 A2978 RMK AO2 UPB20RAB24E36 CIG 003V010 SLP083 P0000 T00170011
Observed
Feb-18 @ 18:53 UTC
Wind
  • 310° at 6 KTS
Visibility
5 SM
Flight Rules
IFR
Conditions
Mist, Unknown precipitation
Cloud Levels
  • Overcast at 600' AGL
Temperature
C / 36°F
Dewpoint
C / 34°F
Humidity
93%
Altimeter
29.78" Hg
Pressure
1008.3 hPa
Current Rain
0.01"
Previous

3 hours ago

KMVY 181753Z 33006KT 4SM BR OVC006 02/02 A2976 RMK AO2 SLP078 60010 T00220017 10022 20006 58003
Observed
Feb-18 @ 17:53 UTC
Wind
  • 330° at 6 KTS
Visibility
4 SM
Flight Rules
IFR
Conditions
Mist
Cloud Levels
  • Overcast at 600' AGL
Temperature
C / 36°F
Dewpoint
C / 36°F
Humidity
100%
Altimeter
29.76" Hg
Pressure
1007.8 hPa